Time;durP1;ratioP1;P1;durP2;ratioP2;P2;SDS_P1;SDS_P2;PMS_P1;PMS_P2;Temp;Humidity;BMP_temperature;BMP_pressure;BME280_temperature;BME280_humidity;BME280_pressure;Samples;Min_cycle;Max_cycle;Signal;HPM_P1;HPM_P2
2023/12/27 00:02:11;;;;;;;3.63;1.60;;;10.00;1.00;;;;;;5196645;28;20431;-32
2023/12/27 00:04:46;;;;;;;3.10;2.05;;;10.00;1.00;;;;;;5197779;28;20059;-31
2023/12/27 00:07:20;;;;;;;2.55;1.60;;;9.90;1.00;;;;;;5195967;28;20034;-31
2023/12/27 00:09:51;;;;;;;1.80;1.60;;;9.90;1.00;;;;;;5186660;28;20060;-31
2023/12/27 00:12:22;;;;;;;3.35;1.80;;;9.90;1.00;;;;;;5183879;28;20051;-32
2023/12/27 00:14:54;;;;;;;3.40;1.48;;;9.90;1.00;;;;;;5181422;28;20029;-31
2023/12/27 00:17:25;;;;;;;2.13;1.90;;;9.90;1.00;;;;;;5183261;28;20033;-31
2023/12/27 00:19:56;;;;;;;2.40;2.10;;;9.90;1.00;;;;;;5199304;28;20052;-32
2023/12/27 00:22:32;;;;;;;2.38;1.63;;;9.80;2.80;;;;;;5199108;28;20029;-31
2023/12/27 00:25:03;;;;;;;1.63;1.52;;;9.80;2.10;;;;;;5211827;28;20025;-31
2023/12/27 00:27:37;;;;;;;3.97;1.83;;;9.80;9.10;;;;;;5199389;28;20217;-31
2023/12/27 00:30:11;;;;;;;2.03;1.83;;;9.80;1.00;;;;;;5187899;28;20345;-30
2023/12/27 00:32:44;;;;;;;2.25;1.70;;;9.80;56.80;;;;;;5180133;28;20275;-31
2023/12/27 00:35:16;;;;;;;3.43;1.97;;;9.80;34.80;;;;;;5191908;28;20238;-31
2023/12/27 00:37:50;;;;;;;1.80;1.70;;;9.80;38.20;;;;;;5192482;28;20334;-32
2023/12/27 00:40:22;;;;;;;2.22;2.03;;;9.80;8.70;;;;;;5177531;28;20032;-32
2023/12/27 00:42:55;;;;;;;3.10;2.10;;;9.80;1.00;;;;;;5197866;28;20230;-32
2023/12/27 00:45:26;;;;;;;1.97;1.70;;;9.80;4.00;;;;;;5194924;28;20385;-31
2023/12/27 00:47:58;;;;;;;3.92;1.98;;;9.80;1.00;;;;;;5196585;28;20029;-31
2023/12/27 00:50:29;;;;;;;3.03;1.75;;;9.80;1.00;;;;;;5194226;28;20036;-31
2023/12/27 00:53:01;;;;;;;2.22;2.03;;;9.80;1.00;;;;;;5199383;28;20263;-34
2023/12/27 00:55:33;;;;;;;2.13;1.70;;;9.80;1.00;;;;;;5191315;28;20042;-31
2023/12/27 00:58:11;;;;;;;2.22;1.80;;;9.80;1.00;;;;;;5162824;28;20037;-31
2023/12/27 01:00:43;;;;;;;3.05;1.70;;;9.90;1.00;;;;;;5192684;28;20037;-31
2023/12/27 01:03:14;;;;;;;4.07;1.98;;;9.90;1.00;;;;;;5178349;28;20026;-31
2023/12/27 01:05:48;;;;;;;3.47;1.65;;;9.80;1.00;;;;;;5186441;28;20036;-31
2023/12/27 01:08:19;;;;;;;2.55;2.10;;;9.90;1.00;;;;;;5177770;28;20037;-31
2023/12/27 01:10:50;;;;;;;4.15;2.05;;;9.90;1.00;;;;;;5192399;28;20034;-30
2023/12/27 01:13:22;;;;;;;1.98;1.73;;;9.90;1.00;;;;;;5175620;28;20033;-31
2023/12/27 01:15:53;;;;;;;2.17;1.70;;;9.90;1.00;;;;;;5194008;28;20473;-31
2023/12/27 01:18:27;;;;;;;2.95;1.98;;;9.90;1.00;;;;;;5179122;28;20033;-34
2023/12/27 01:20:58;;;;;;;3.17;1.75;;;9.90;1.00;;;;;;5190100;28;20034;-32
2023/12/27 01:23:32;;;;;;;3.17;1.85;;;9.90;1.00;;;;;;5198274;28;20245;-31
2023/12/27 01:26:09;;;;;;;;;;;9.90;1.00;;;;;;5204968;28;20022;-31
2023/12/27 01:28:42;;;;;;;4.57;2.55;;;9.90;1.00;;;;;;5198041;28;19935;-32
2023/12/27 01:31:24;;;;;;;3.47;1.95;;;9.90;1.00;;;;;;5195247;28;20230;-31
2023/12/27 01:33:58;;;;;;;2.22;1.90;;;9.90;1.00;;;;;;5187280;28;20104;-31
2023/12/27 01:36:31;;;;;;;3.10;1.92;;;9.90;1.00;;;;;;5183998;28;20021;-31
2023/12/27 01:39:06;;;;;;;5.37;2.43;;;9.90;1.00;;;;;;5188028;28;20363;-31
2023/12/27 01:41:37;;;;;;;;;;;9.90;1.00;;;;;;5175678;28;20293;-30
2023/12/27 01:44:08;;;;;;;2.17;1.98;;;9.90;1.00;;;;;;5175788;28;20203;-32
2023/12/27 01:46:39;;;;;;;2.25;1.85;;;9.90;1.00;;;;;;5178393;28;20280;-32
2023/12/27 01:49:10;;;;;;;2.22;2.00;;;9.90;1.00;;;;;;5175006;28;20033;-32
2023/12/27 01:51:46;;;;;;;3.50;2.25;;;9.90;1.00;;;;;;5186269;28;20045;-34
2023/12/27 01:54:17;;;;;;;3.38;2.10;;;9.90;1.00;;;;;;5164389;28;20037;-31
2023/12/27 01:56:57;;;;;;;3.78;1.90;;;9.90;1.00;;;;;;5189480;28;20226;-31
2023/12/27 01:59:29;;;;;;;2.97;1.95;;;9.90;1.00;;;;;;5178642;28;20363;-31
2023/12/27 02:02:03;;;;;;;2.70;2.00;;;9.90;1.00;;;;;;5193126;28;20037;-32
2023/12/27 02:04:34;;;;;;;2.55;1.90;;;9.90;1.00;;;;;;5178920;28;20488;-32
2023/12/27 02:07:06;;;;;;;3.67;2.10;;;9.90;1.00;;;;;;5177721;28;20241;-32
2023/12/27 02:09:43;;;;;;;2.67;1.80;;;9.90;1.00;;;;;;5196935;28;20313;-32
2023/12/27 02:12:29;;;;;;;1.58;1.30;;;9.80;1.00;;;;;;5182878;28;20017;-31
2023/12/27 02:15:02;;;;;;;3.13;1.83;;;9.80;1.00;;;;;;5182854;28;20032;-32
2023/12/27 02:17:34;;;;;;;2.00;1.80;;;9.90;1.00;;;;;;5187388;28;20299;-32
2023/12/27 02:20:08;;;;;;;5.88;1.60;;;9.90;1.00;;;;;;5178880;28;20222;-32
2023/12/27 02:22:41;;;;;;;;;;;9.80;1.00;;;;;;5186752;28;20445;-32
2023/12/27 02:25:15;;;;;;;2.20;1.48;;;9.80;1.00;;;;;;5200342;28;19916;-33
2023/12/27 02:27:46;;;;;;;;;;;9.80;1.00;;;;;;5178794;28;20037;-31
2023/12/27 02:30:22;;;;;;;2.85;1.63;;;9.80;1.00;;;;;;5158785;28;20081;-31
2023/12/27 02:32:55;;;;;;;3.85;1.85;;;9.80;1.00;;;;;;5179739;28;20415;-31
2023/12/27 02:35:31;;;;;;;1.67;1.57;;;9.80;1.00;;;;;;5172576;28;20079;-31
2023/12/27 02:38:05;;;;;;;10.45;1.55;;;9.80;1.00;;;;;;5197170;28;20033;-31
2023/12/27 02:40:38;;;;;;;1.67;1.58;;;9.80;1.00;;;;;;5179143;28;20055;-31
2023/12/27 02:43:15;;;;;;;1.63;1.52;;;9.80;1.00;;;;;;5175013;28;20245;-31
2023/12/27 02:45:46;;;;;;;3.13;1.45;;;9.80;1.00;;;;;;5176481;28;20245;-31
2023/12/27 02:48:17;;;;;;;1.45;1.30;;;9.80;1.00;;;;;;5195316;28;20198;-31
2023/12/27 02:50:53;;;;;;;1.60;1.50;;;9.80;1.00;;;;;;5178342;28;20040;-32
2023/12/27 02:53:26;;;;;;;3.80;1.40;;;9.80;1.00;;;;;;5201672;28;20037;-31
2023/12/27 02:55:58;;;;;;;1.50;1.30;;;9.70;1.00;;;;;;5201817;28;20039;-31
2023/12/27 02:58:29;;;;;;;1.60;1.50;;;9.70;1.00;;;;;;5195534;28;20029;-32
2023/12/27 03:01:03;;;;;;;2.33;1.50;;;9.70;1.00;;;;;;5187381;28;20272;-31
2023/12/27 03:03:37;;;;;;;2.70;1.25;;;9.70;1.00;;;;;;5196514;28;20202;-31
2023/12/27 03:06:13;;;;;;;3.47;1.55;;;9.70;1.00;;;;;;5167064;28;20045;-31
2023/12/27 03:08:52;;;;;;;1.92;1.52;;;9.70;1.00;;;;;;5180216;28;20029;-31
2023/12/27 03:11:26;;;;;;;4.00;1.40;;;9.60;1.00;;;;;;5191655;28;20032;-31
2023/12/27 03:14:00;;;;;;;2.15;1.52;;;9.60;1.00;;;;;;5195405;28;20333;-31
2023/12/27 03:16:31;;;;;;;3.25;1.48;;;9.60;1.00;;;;;;5181884;28;20059;-31
2023/12/27 03:19:03;;;;;;;1.40;1.30;;;9.60;1.00;;;;;;5160493;28;20029;-32
2023/12/27 03:21:36;;;;;;;1.55;1.10;;;9.60;1.00;;;;;;5187524;28;20037;-31
2023/12/27 03:24:07;;;;;;;1.40;1.30;;;9.60;1.00;;;;;;5189015;28;20029;-36
2023/12/27 03:26:39;;;;;;;1.65;1.20;;;9.60;1.00;;;;;;5174894;28;20033;-32
2023/12/27 03:29:13;;;;;;;1.60;1.33;;;9.60;1.00;;;;;;5171763;28;20045;-32
2023/12/27 03:31:44;;;;;;;1.52;1.35;;;9.60;1.00;;;;;;5150591;28;20043;-32
2023/12/27 03:34:21;;;;;;;2.55;1.42;;;9.60;1.00;;;;;;5199173;28;20033;-32
2023/12/27 03:36:54;;;;;;;2.45;1.20;;;9.70;1.00;;;;;;5178158;28;20033;-31
2023/12/27 03:39:33;;;;;;;2.92;1.30;;;9.70;1.00;;;;;;5179430;28;20326;-32
2023/12/27 03:42:05;;;;;;;1.30;1.20;;;9.70;1.00;;;;;;5212490;28;20037;-31
2023/12/27 03:44:38;;;;;;;2.42;1.00;;;9.70;1.00;;;;;;5164188;28;20480;-31
2023/12/27 03:47:09;;;;;;;4.47;1.90;;;9.70;1.00;;;;;;5186920;28;20026;-31
2023/12/27 03:49:43;;;;;;;0.90;0.90;;;9.70;1.00;;;;;;5186407;28;20030;-33
2023/12/27 03:52:15;;;;;;;1.50;1.40;;;9.70;1.00;;;;;;5180901;28;20244;-32
2023/12/27 03:54:46;;;;;;;1.60;1.50;;;9.60;1.00;;;;;;5151155;28;20367;-31
2023/12/27 03:57:20;;;;;;;1.83;1.00;;;9.60;1.00;;;;;;5189044;28;20306;-31
2023/12/27 03:59:54;;;;;;;3.17;1.33;;;9.60;1.00;;;;;;5181931;28;20057;-31
2023/12/27 04:02:27;;;;;;;2.45;1.05;;;9.70;1.00;;;;;;5158169;28;20348;-33
2023/12/27 04:04:58;;;;;;;2.22;1.30;;;9.60;1.00;;;;;;5199060;28;20041;-31
2023/12/27 04:07:29;;;;;;;1.48;1.05;;;9.60;1.00;;;;;;5200354;28;20454;-31
2023/12/27 04:10:03;;;;;;;1.30;1.20;;;9.60;1.00;;;;;;5200889;28;20031;-31
2023/12/27 04:12:37;;;;;;;1.88;1.38;;;9.70;1.00;;;;;;5200385;28;20017;-31
2023/12/27 04:15:09;;;;;;;3.87;1.10;;;9.60;1.00;;;;;;5196038;28;20271;-32
2023/12/27 04:17:40;;;;;;;2.05;1.08;;;9.60;1.00;;;;;;5183103;28;20428;-32
2023/12/27 04:20:17;;;;;;;1.10;1.10;;;9.60;1.00;;;;;;5169167;28;20053;-31
2023/12/27 04:22:51;;;;;;;1.00;0.95;;;9.60;1.00;;;;;;5181115;28;20037;-36
2023/12/27 04:25:24;;;;;;;2.97;1.30;;;9.60;1.00;;;;;;5186335;28;20037;-32
2023/12/27 04:27:55;;;;;;;2.78;1.23;;;9.60;1.00;;;;;;5194725;28;20038;-32
2023/12/27 04:30:29;;;;;;;3.70;1.20;;;9.60;1.00;;;;;;5196573;28;20312;-32
2023/12/27 04:33:04;;;;;;;1.30;1.20;;;9.60;1.00;;;;;;5198729;28;20033;-32
2023/12/27 04:35:35;;;;;;;1.23;0.90;;;9.60;1.00;;;;;;5163485;28;20320;-32
2023/12/27 04:38:13;;;;;;;1.20;1.15;;;9.60;1.00;;;;;;5182108;28;20056;-30
2023/12/27 04:40:48;;;;;;;1.33;1.10;;;9.60;1.00;;;;;;5193147;28;20032;-32
2023/12/27 04:43:22;;;;;;;1.08;0.98;;;9.50;1.00;;;;;;5217347;28;20371;-32
2023/12/27 04:45:53;;;;;;;1.15;0.90;;;9.50;1.00;;;;;;5179382;28;20038;-32
2023/12/27 04:48:24;;;;;;;1.63;1.08;;;9.50;1.00;;;;;;5173256;28;20045;-31
2023/12/27 04:50:58;;;;;;;2.67;1.75;;;9.50;1.00;;;;;;5199351;28;20025;-31
2023/12/27 04:53:34;;;;;;;1.50;1.40;;;9.50;1.00;;;;;;5204584;28;20037;-31
2023/12/27 04:56:13;;;;;;;2.35;1.20;;;9.50;1.00;;;;;;5155383;28;20052;-31
2023/12/27 04:58:44;;;;;;;1.65;1.10;;;9.60;1.00;;;;;;5180179;28;20209;-31
2023/12/27 05:01:18;;;;;;;1.40;1.30;;;9.50;1.00;;;;;;5172543;28;20041;-31
2023/12/27 05:03:52;;;;;;;1.65;1.40;;;9.50;1.00;;;;;;5174522;28;20033;-32
2023/12/27 05:06:23;;;;;;;1.20;1.10;;;9.50;1.00;;;;;;5180760;28;20041;-32
2023/12/27 05:08:55;;;;;;;1.77;1.30;;;9.50;1.00;;;;;;5179669;28;20036;-32
2023/12/27 05:11:27;;;;;;;2.85;1.40;;;9.40;1.00;;;;;;5194103;28;20049;-31
2023/12/27 05:14:05;;;;;;;2.65;1.20;;;9.30;1.00;;;;;;5189564;28;20030;-31
2023/12/27 05:16:39;;;;;;;1.92;1.08;;;9.30;1.00;;;;;;5175706;28;20367;-31
2023/12/27 05:19:12;;;;;;;1.63;0.98;;;9.20;1.00;;;;;;5219846;28;20237;-31
2023/12/27 05:21:47;;;;;;;1.73;1.10;;;9.10;1.00;;;;;;5218961;28;20051;-33
2023/12/27 05:24:18;;;;;;;3.10;1.50;;;9.10;1.00;;;;;;5175438;28;20229;-31
2023/12/27 05:26:50;;;;;;;1.42;1.20;;;9.10;1.00;;;;;;5167061;28;20056;-31
2023/12/27 05:29:23;;;;;;;3.10;1.40;;;9.10;1.00;;;;;;5171379;28;20026;-31
2023/12/27 05:31:55;;;;;;;3.10;1.27;;;9.10;1.00;;;;;;5196078;28;20056;-33
2023/12/27 05:34:27;;;;;;;1.42;1.25;;;9.10;1.00;;;;;;5199017;28;20337;-31
2023/12/27 05:36:58;;;;;;;3.17;1.35;;;9.10;1.00;;;;;;5199330;28;20210;-31
2023/12/27 05:39:31;;;;;;;1.75;1.00;;;9.20;1.00;;;;;;5198688;28;20025;-31
2023/12/27 05:42:05;;;;;;;2.50;1.47;;;9.20;1.00;;;;;;5198992;28;20182;-31
2023/12/27 05:44:36;;;;;;;1.42;1.02;;;9.20;1.00;;;;;;5187732;28;20287;-31
2023/12/27 05:47:08;;;;;;;4.72;1.30;;;9.20;1.00;;;;;;5178254;28;20029;-32
2023/12/27 05:49:39;;;;;;;1.48;1.08;;;9.20;1.00;;;;;;5198704;28;20032;-32
2023/12/27 05:52:15;;;;;;;1.83;1.48;;;9.20;1.00;;;;;;5196730;28;20029;-32
2023/12/27 05:54:46;;;;;;;1.13;1.02;;;9.20;1.00;;;;;;5167530;28;20040;-32
2023/12/27 05:57:18;;;;;;;1.88;1.58;;;9.20;1.00;;;;;;5177667;28;20030;-30
2023/12/27 05:59:51;;;;;;;2.08;0.90;;;9.20;1.00;;;;;;5177298;28;20033;-31
2023/12/27 06:02:27;;;;;;;3.67;1.40;;;9.20;1.00;;;;;;5181647;28;20029;-31
2023/12/27 06:04:59;;;;;;;3.42;1.50;;;9.20;1.00;;;;;;5158557;28;20435;-31
2023/12/27 06:07:32;;;;;;;4.15;1.60;;;9.10;1.00;;;;;;5187719;28;20041;-31
2023/12/27 06:10:10;;;;;;;1.30;1.20;;;9.00;1.00;;;;;;5198847;28;20237;-31
2023/12/27 06:12:44;;;;;;;1.33;1.10;;;9.00;1.00;;;;;;5195195;28;20257;-32
2023/12/27 06:15:18;;;;;;;2.55;1.70;;;9.00;1.00;;;;;;5194802;28;20108;-32
2023/12/27 06:17:50;;;;;;;2.90;1.50;;;9.00;1.00;;;;;;5196512;28;20047;-32
2023/12/27 06:20:21;;;;;;;1.40;1.20;;;9.00;1.00;;;;;;5216155;28;20205;-33
2023/12/27 06:22:55;;;;;;;2.08;1.33;;;9.00;1.00;;;;;;5207554;28;20029;-32
2023/12/27 06:25:28;;;;;;;1.85;1.40;;;9.00;1.00;;;;;;5189754;28;20284;-32
2023/12/27 06:27:59;;;;;;;2.25;1.40;;;9.00;1.00;;;;;;5163308;28;20249;-32
2023/12/27 06:30:33;;;;;;;1.48;1.10;;;9.00;1.00;;;;;;5195302;28;20032;-32
2023/12/27 06:33:11;;;;;;;2.50;1.70;;;9.00;1.00;;;;;;5187964;28;20444;-32
2023/12/27 06:35:42;;;;;;;1.50;1.20;;;9.00;1.00;;;;;;5180499;28;20044;-32
2023/12/27 06:38:16;;;;;;;1.77;1.02;;;9.00;1.00;;;;;;5197852;28;20037;-31
2023/12/27 06:40:48;;;;;;;2.65;1.20;;;9.00;1.00;;;;;;5198199;28;20405;-31
2023/12/27 06:43:19;;;;;;;2.42;1.20;;;9.00;1.00;;;;;;5195309;28;20031;-31
2023/12/27 06:45:50;;;;;;;4.13;1.55;;;9.00;1.00;;;;;;5143459;28;20306;-32
2023/12/27 06:48:24;;;;;;;3.17;1.73;;;9.00;1.00;;;;;;5195201;28;20029;-32
2023/12/27 06:50:58;;;;;;;2.53;1.65;;;9.00;1.00;;;;;;5197621;28;20030;-32
2023/12/27 06:53:31;;;;;;;1.80;1.50;;;9.00;1.00;;;;;;5192687;28;21855;-30
2023/12/27 06:56:05;;;;;;;1.63;1.50;;;9.00;1.00;;;;;;5189061;28;20033;-32
2023/12/27 06:58:37;;;;;;;2.35;1.58;;;9.00;1.00;;;;;;5198952;28;20030;-32
2023/12/27 07:01:09;;;;;;;2.00;1.38;;;9.00;1.00;;;;;;5199609;28;20041;-32
2023/12/27 07:03:40;;;;;;;2.28;1.63;;;9.00;1.00;;;;;;5190605;28;21146;-31
2023/12/27 07:06:14;;;;;;;1.35;1.25;;;9.00;1.00;;;;;;5166368;28;20320;-31
2023/12/27 07:08:48;;;;;;;2.70;1.90;;;9.00;1.00;;;;;;5203988;28;20037;-31
2023/12/27 07:11:19;;;;;;;3.50;1.90;;;9.00;1.00;;;;;;5204532;28;20025;-31
2023/12/27 07:13:54;;;;;;;1.52;1.33;;;9.00;1.00;;;;;;5196316;28;20037;-31
2023/12/27 07:16:25;;;;;;;;;;;9.00;1.00;;;;;;5201313;28;20255;-31
2023/12/27 07:18:56;;;;;;;2.85;1.92;;;9.00;1.00;;;;;;5202210;28;19908;-34
2023/12/27 07:21:28;;;;;;;1.80;1.27;;;9.00;1.00;;;;;;5185839;28;20044;-31
2023/12/27 07:23:59;;;;;;;2.95;1.52;;;9.00;1.00;;;;;;5178352;28;20045;-32
2023/12/27 07:26:38;;;;;;;1.65;1.20;;;9.00;1.00;;;;;;5185966;28;20038;-31
2023/12/27 07:29:14;;;;;;;3.58;1.95;;;9.10;1.00;;;;;;5190813;28;20033;-32
2023/12/27 07:31:45;;;;;;;2.08;1.88;;;9.10;1.00;;;;;;5198240;28;20187;-32
2023/12/27 07:34:19;;;;;;;4.55;2.25;;;9.00;1.00;;;;;;5194901;28;20040;-30
2023/12/27 07:36:50;;;;;;;4.45;2.45;;;9.00;1.00;;;;;;5195420;28;20044;-32
2023/12/27 07:39:27;;;;;;;4.07;1.95;;;9.00;1.00;;;;;;5185561;28;20040;-32
2023/12/27 07:41:58;;;;;;;3.53;2.00;;;9.00;1.00;;;;;;5187867;28;20052;-32
2023/12/27 07:44:32;;;;;;;6.32;2.03;;;9.10;1.00;;;;;;5181173;28;20332;-32
2023/12/27 07:47:08;;;;;;;;;;;9.10;1.00;;;;;;5195361;28;20249;-34
2023/12/27 07:49:42;;;;;;;3.15;1.98;;;9.10;1.00;;;;;;5165834;28;19909;-31
2023/12/27 07:52:17;;;;;;;3.28;1.77;;;9.10;1.00;;;;;;5173212;28;20076;-31
2023/12/27 07:54:53;;;;;;;1.58;1.30;;;9.20;1.00;;;;;;5201660;28;20317;-31
2023/12/27 07:57:25;;;;;;;1.30;1.20;;;9.20;1.00;;;;;;5179669;28;20358;-31
2023/12/27 07:59:57;;;;;;;3.15;1.30;;;9.30;1.00;;;;;;5194893;28;20229;-31
2023/12/27 08:02:30;;;;;;;2.78;1.42;;;9.30;1.00;;;;;;5179415;28;20326;-30
2023/12/27 08:05:04;;;;;;;2.97;1.45;;;9.30;1.00;;;;;;5165008;28;20234;-33
2023/12/27 08:07:38;;;;;;;2.25;1.63;;;9.40;1.00;;;;;;5186236;28;20245;-32
2023/12/27 08:10:12;;;;;;;5.13;1.83;;;9.50;1.00;;;;;;5200208;28;20041;-32
2023/12/27 08:12:45;;;;;;;4.00;1.90;;;9.60;1.00;;;;;;5163818;28;20214;-32
2023/12/27 08:15:18;;;;;;;1.45;1.35;;;9.60;1.00;;;;;;5194683;28;20206;-32
2023/12/27 08:17:50;;;;;;;1.60;1.20;;;9.70;1.00;;;;;;5200542;28;20037;-32
2023/12/27 08:20:21;;;;;;;2.42;1.50;;;9.90;1.00;;;;;;5177414;28;21267;-32
2023/12/27 08:22:54;;;;;;;3.22;1.65;;;10.10;1.00;;;;;;5180508;28;20101;-32
2023/12/27 08:25:26;;;;;;;1.67;1.33;;;10.10;1.00;;;;;;5172586;28;20041;-32
2023/12/27 08:28:04;;;;;;;3.90;1.83;;;10.30;1.00;;;;;;5201052;28;20022;-30
2023/12/27 08:30:42;;;;;;;4.22;1.63;;;10.40;1.00;;;;;;5188106;28;20025;-32
2023/12/27 08:33:23;;;;;;;7.45;3.75;;;10.50;1.00;;;;;;5180143;28;20037;-30
2023/12/27 08:35:54;;;;;;;2.53;1.17;;;10.60;1.00;;;;;;5195713;28;20227;-32
2023/12/27 08:38:26;;;;;;;2.85;1.55;;;10.60;1.00;;;;;;5178896;28;20217;-32
2023/12/27 08:40:57;;;;;;;6.05;2.83;;;10.60;1.00;;;;;;5189997;28;20034;-32
2023/12/27 08:43:29;;;;;;;3.72;2.83;;;10.90;1.00;;;;;;5198177;28;20189;-32
2023/12/27 08:46:01;;;;;;;3.35;1.50;;;11.00;1.00;;;;;;5197161;28;20033;-32
2023/12/27 08:48:34;;;;;;;5.47;1.88;;;11.20;1.00;;;;;;5182056;28;20032;-32
2023/12/27 08:51:08;;;;;;;2.70;2.03;;;11.50;1.00;;;;;;5189145;28;20299;-34
2023/12/27 08:53:41;;;;;;;2.60;1.85;;;11.70;1.00;;;;;;5170311;28;20037;-31
2023/12/27 08:56:12;;;;;;;3.95;1.70;;;12.10;8.60;;;;;;5197315;28;20217;-31
2023/12/27 08:58:48;;;;;;;2.20;1.60;;;12.40;20.80;;;;;;5195000;28;20040;-31
2023/12/27 09:01:25;;;;;;;2.10;1.75;;;12.60;1.00;;;;;;5172243;28;20026;-32
2023/12/27 09:03:56;;;;;;;1.70;1.60;;;12.60;9.50;;;;;;5197975;28;20036;-32
2023/12/27 09:06:33;;;;;;;1.98;1.70;;;12.90;14.80;;;;;;5196597;28;20037;-32
2023/12/27 09:09:06;;;;;;;1.85;1.50;;;13.00;1.00;;;;;;5197445;28;20241;-31
2023/12/27 09:11:40;;;;;;;3.25;1.80;;;13.00;1.00;;;;;;5184894;28;20297;-32
2023/12/27 09:14:12;;;;;;;3.13;1.67;;;12.90;1.00;;;;;;5179282;28;20492;-32
2023/12/27 09:16:45;;;;;;;2.10;1.70;;;12.90;1.00;;;;;;5162684;28;20224;-32
2023/12/27 09:19:17;;;;;;;3.15;1.60;;;12.80;2.20;;;;;;5170336;28;20226;-31
2023/12/27 09:21:51;;;;;;;1.52;1.33;;;12.90;17.10;;;;;;5194175;28;20229;-32
2023/12/27 09:24:25;;;;;;;2.38;1.73;;;13.00;1.00;;;;;;5180233;28;20037;-32
2023/12/27 09:26:57;;;;;;;3.80;1.60;;;13.20;1.00;;;;;;5192572;28;20324;-30
2023/12/27 09:29:34;;;;;;;2.80;1.63;;;13.30;1.00;;;;;;5190254;28;20233;-31
2023/12/27 09:32:06;;;;;;;4.60;1.65;;;13.30;1.00;;;;;;5184712;28;20034;-31
2023/12/27 09:34:37;;;;;;;1.58;1.48;;;13.30;1.00;;;;;;5165155;28;20312;-31
2023/12/27 09:37:08;;;;;;;2.58;1.50;;;13.20;1.00;;;;;;5201133;28;20049;-30
2023/12/27 09:39:44;;;;;;;3.97;1.33;;;13.20;1.00;;;;;;5184053;28;20041;-30
2023/12/27 09:42:17;;;;;;;2.63;1.60;;;13.10;35.60;;;;;;5194846;28;20480;-31
2023/12/27 09:44:54;;;;;;;3.00;1.67;;;13.00;1.00;;;;;;5191580;28;20025;-31
2023/12/27 09:47:28;;;;;;;1.77;1.67;;;12.90;24.10;;;;;;5202264;28;20043;-31
2023/12/27 09:50:04;;;;;;;1.58;1.48;;;12.70;99.90;;;;;;5183055;28;20335;-33
2023/12/27 09:52:39;;;;;;;3.38;1.80;;;12.60;1.00;;;;;;5186064;28;20044;-32
2023/12/27 09:55:12;;;;;;;2.63;1.65;;;12.60;1.00;;;;;;5190355;28;20044;-32
2023/12/27 09:57:50;;;;;;;1.77;1.53;;;12.60;24.30;;;;;;5191618;28;20033;-32
2023/12/27 10:00:30;;;;;;;3.10;1.40;;;12.40;25.50;;;;;;5167727;28;20270;-31
2023/12/27 10:03:07;;;;;;;1.55;1.45;;;12.50;74.80;;;;;;5193767;28;20033;-31
2023/12/27 10:06:05;;;;;;;2.10;1.30;;;12.70;1.00;;;;;;5195885;28;20033;-31
2023/12/27 10:08:38;;;;;;;2.75;1.75;;;12.80;1.00;;;;;;5190029;28;20029;-31
2023/12/27 10:11:11;;;;;;;2.65;2.13;;;12.50;1.00;;;;;;5177695;28;20048;-31
2023/12/27 10:13:47;;;;;;;1.90;1.48;;;12.50;1.00;;;;;;5201173;28;20043;-31
2023/12/27 10:16:20;;;;;;;2.63;1.40;;;12.20;1.00;;;;;;5173204;28;20032;-31
2023/12/27 10:18:54;;;;;;;2.15;1.27;;;12.40;1.00;;;;;;5185357;28;20033;-32
2023/12/27 10:21:39;;;;;;;3.13;2.00;;;12.60;1.00;;;;;;5154507;28;20320;-32
2023/12/27 10:24:13;;;;;;;2.50;1.70;;;12.50;1.00;;;;;;5185118;28;20025;-32
2023/12/27 10:26:45;;;;;;;2.40;1.60;;;12.60;1.00;;;;;;5194594;28;20239;-32
2023/12/27 10:29:21;;;;;;;3.22;1.70;;;13.60;35.00;;;;;;5182382;28;20029;-32
2023/12/27 10:31:52;;;;;;;4.47;1.92;;;15.30;99.90;;;;;;5193257;28;20018;-34
2023/12/27 10:34:24;;;;;;;2.00;1.52;;;16.20;99.90;;;;;;5198060;28;20033;-31
2023/12/27 10:36:57;;;;;;;2.08;1.50;;;17.30;99.90;;;;;;5191661;28;20069;-31
2023/12/27 10:39:28;;;;;;;4.15;1.42;;;17.80;99.90;;;;;;5190199;28;20131;-31
2023/12/27 10:42:02;;;;;;;1.48;1.38;;;18.40;99.90;;;;;;5173332;28;20041;-31
2023/12/27 10:44:36;;;;;;;3.60;1.83;;;18.20;99.90;;;;;;5194709;28;20034;-31
2023/12/27 10:47:11;;;;;;;3.20;1.73;;;18.10;99.90;;;;;;5185543;28;20195;-31
2023/12/27 10:49:47;;;;;;;1.90;1.42;;;18.20;99.90;;;;;;5184162;28;20032;-32
2023/12/27 10:52:20;;;;;;;2.50;1.80;;;18.40;99.90;;;;;;5192275;28;20386;-32
2023/12/27 10:54:54;;;;;;;5.78;1.80;;;18.50;99.90;;;;;;5195329;28;20028;-30
2023/12/27 10:57:28;;;;;;;1.55;1.35;;;18.20;99.90;;;;;;5174019;28;20038;-32
2023/12/27 11:00:01;;;;;;;4.07;1.60;;;18.60;99.90;;;;;;5182496;28;20116;-30
2023/12/27 11:02:36;;;;;;;3.83;1.77;;;19.00;99.90;;;;;;5189665;28;20343;-31
2023/12/27 11:05:07;;;;;;;1.73;1.25;;;18.30;99.90;;;;;;5183000;28;20292;-31
2023/12/27 11:07:44;;;;;;;1.95;1.80;;;16.60;99.90;;;;;;5183549;28;20037;-32
2023/12/27 11:10:17;;;;;;;2.60;1.70;;;15.50;99.90;;;;;;5187412;28;20404;-32
2023/12/27 11:12:54;;;;;;;3.38;1.83;;;15.30;99.90;;;;;;5195706;28;20382;-32
2023/12/27 11:15:26;;;;;;;2.72;1.90;;;15.80;99.90;;;;;;5194209;28;20033;-31
2023/12/27 11:18:02;;;;;;;2.40;1.88;;;16.00;99.90;;;;;;5181096;28;20037;-31
2023/12/27 11:20:34;;;;;;;2.85;1.83;;;16.00;99.90;;;;;;5200981;28;20029;-32
2023/12/27 11:23:06;;;;;;;4.35;2.05;;;15.30;99.90;;;;;;5197305;28;20036;-32
2023/12/27 11:25:37;;;;;;;3.03;2.10;;;14.50;99.90;;;;;;5166247;28;20056;-31
2023/12/27 11:28:11;;;;;;;3.03;1.90;;;14.00;99.90;;;;;;5184757;28;20040;-31
2023/12/27 11:30:45;;;;;;;4.00;2.05;;;13.10;99.90;;;;;;5191285;28;20033;-33
2023/12/27 11:33:25;;;;;;;3.78;2.30;;;12.80;99.90;;;;;;5188187;28;20034;-30
2023/12/27 11:35:57;;;;;;;4.95;2.53;;;12.60;67.40;;;;;;5178754;28;20029;-32
2023/12/27 11:38:28;;;;;;;3.08;2.33;;;12.30;99.90;;;;;;5160304;28;20335;-33
2023/12/27 11:41:01;;;;;;;2.70;2.05;;;11.90;99.90;;;;;;5160624;28;20049;-32
2023/12/27 11:44:03;;;;;;;5.05;2.13;;;12.20;9.90;;;;;;5160283;28;20387;-32
2023/12/27 11:46:34;;;;;;;3.88;2.10;;;13.80;99.90;;;;;;5187886;28;20030;-32
2023/12/27 11:49:05;;;;;;;2.10;1.80;;;15.60;99.90;;;;;;5190528;28;20030;-32
2023/12/27 11:51:38;;;;;;;4.05;2.00;;;16.50;99.90;;;;;;5181402;28;20265;-32
2023/12/27 11:54:23;;;;;;;2.20;1.65;;;17.40;99.90;;;;;;5191874;28;20453;-32
2023/12/27 11:56:55;;;;;;;1.98;1.60;;;17.70;99.90;;;;;;5185608;28;20350;-31
2023/12/27 11:59:27;;;;;;;1.73;1.50;;;17.60;99.90;;;;;;5194161;28;20357;-32
2023/12/27 12:02:02;;;;;;;2.33;1.40;;;17.70;99.90;;;;;;5194721;28;20182;-32
2023/12/27 12:04:50;;;;;;;3.65;1.80;;;17.80;99.90;;;;;;5190784;28;20352;-32
2023/12/27 12:07:53;;;;;;;2.67;1.95;;;18.10;99.90;;;;;;5167005;28;20255;-32
2023/12/27 12:10:27;;;;;;;2.80;1.45;;;18.50;99.90;;;;;;5200314;28;20235;-32
2023/12/27 12:12:58;;;;;;;1.60;1.50;;;18.50;99.90;;;;;;5162579;28;20307;-32
2023/12/27 12:15:30;;;;;;;1.85;1.27;;;17.80;99.90;;;;;;5187099;28;20029;-32
2023/12/27 12:18:05;;;;;;;2.67;1.60;;;17.10;99.90;;;;;;5198197;28;20049;-32
2023/12/27 12:20:36;;;;;;;3.53;1.92;;;16.70;99.90;;;;;;5198361;28;20369;-32
2023/12/27 12:23:13;;;;;;;2.38;1.70;;;17.10;99.90;;;;;;5173145;28;20511;-32
2023/12/27 12:25:44;;;;;;;1.67;1.30;;;17.60;99.90;;;;;;5193016;28;20241;-32
2023/12/27 12:28:16;;;;;;;3.00;1.80;;;17.80;99.90;;;;;;5194404;28;20041;-32
2023/12/27 12:30:47;;;;;;;6.13;1.77;;;17.90;99.90;;;;;;5167205;28;20302;-32
2023/12/27 12:33:18;;;;;;;2.60;1.52;;;18.00;99.90;;;;;;5190864;28;20023;-32
2023/12/27 12:35:51;;;;;;;2.80;1.52;;;18.00;99.90;;;;;;5190181;28;20029;-32
2023/12/27 12:38:23;;;;;;;3.30;2.28;;;17.60;99.90;;;;;;5195286;28;20035;-31
2023/12/27 12:40:54;;;;;;;1.92;1.35;;;17.80;99.90;;;;;;5191133;28;20036;-32
2023/12/27 12:43:26;;;;;;;3.15;1.40;;;18.00;99.90;;;;;;5180241;28;20276;-31
2023/12/27 12:46:01;;;;;;;2.70;1.70;;;17.70;99.90;;;;;;5152749;28;20222;-34
2023/12/27 12:48:36;;;;;;;1.45;1.30;;;17.30;99.90;;;;;;5185399;28;20078;-31
2023/12/27 12:51:15;;;;;;;2.95;1.83;;;17.60;99.90;;;;;;5172914;28;20325;-31
2023/12/27 12:53:47;;;;;;;1.70;1.42;;;17.50;99.90;;;;;;5167750;28;20045;-31
2023/12/27 12:56:19;;;;;;;1.60;1.48;;;17.80;99.90;;;;;;5190684;28;20291;-32
2023/12/27 12:58:51;;;;;;;4.57;1.52;;;18.20;99.90;;;;;;5193255;28;20033;-32
2023/12/27 13:01:22;;;;;;;1.60;1.50;;;18.30;99.90;;;;;;5183659;28;20266;-33
2023/12/27 13:03:55;;;;;;;3.05;1.58;;;18.10;99.90;;;;;;5195388;28;20048;-31
2023/12/27 13:06:27;;;;;;;1.73;1.52;;;18.10;99.90;;;;;;5190945;28;20039;-32
2023/12/27 13:08:58;;;;;;;1.70;1.60;;;18.20;99.90;;;;;;5191559;28;20034;-32
2023/12/27 13:11:29;;;;;;;2.13;1.60;;;18.10;99.90;;;;;;5186816;28;20190;-32
2023/12/27 13:14:01;;;;;;;1.90;1.80;;;17.80;99.90;;;;;;5191083;28;20037;-32
2023/12/27 13:16:34;;;;;;;1.40;1.20;;;16.70;80.10;;;;;;5166003;28;20030;-32
2023/12/27 13:19:06;;;;;;;4.77;1.80;;;16.70;98.00;;;;;;5189749;28;20191;-32
2023/12/27 13:21:39;;;;;;;1.92;1.70;;;16.30;68.10;;;;;;5188605;28;20237;-31
2023/12/27 13:24:11;;;;;;;1.63;1.50;;;16.40;99.90;;;;;;5186384;28;20029;-31
2023/12/27 13:26:46;;;;;;;3.45;1.50;;;15.70;71.90;;;;;;5188170;28;20359;-31
2023/12/27 13:29:20;;;;;;;1.40;1.30;;;15.70;44.60;;;;;;5175675;28;20030;-31
2023/12/27 13:31:52;;;;;;;2.72;1.50;;;15.40;90.00;;;;;;5182399;28;20029;-32
2023/12/27 13:34:23;;;;;;;1.17;1.10;;;15.40;36.50;;;;;;5172495;28;20029;-32
2023/12/27 13:36:54;;;;;;;4.47;1.42;;;15.20;1.00;;;;;;5191306;28;20033;-31